Time;durP1;ratioP1;P1;durP2;ratioP2;P2;SDS_P1;SDS_P2;PMS_P1;PMS_P2;Temp;Humidity;BMP_temperature;BMP_pressure;BME280_temperature;BME280_humidity;BME280_pressure;Samples;Min_cycle;Max_cycle;Signal;HPM_P1;HPM_P2
2022/08/28 00:01:41;;;;;;;15.25;3.03;;;;;;;-147.53;100.00;57128.34;10320905;28;20049;-73
2022/08/28 00:06:43;;;;;;;16.05;3.88;;;;;;;-147.53;100.00;57128.34;10323279;28;20030;-73
2022/08/28 00:11:46;;;;;;;12.35;3.22;;;;;;;-147.53;100.00;57128.34;10311141;28;20046;-73
2022/08/28 00:16:48;;;;;;;16.83;3.78;;;;;;;-147.53;100.00;57128.34;10322910;28;20088;-73
2022/08/28 00:21:52;;;;;;;15.40;3.30;;;;;;;-147.53;100.00;57128.34;10309774;28;20125;-73
2022/08/28 00:32:14;;;;;;;11.00;2.75;;;;;;;-147.53;100.00;57128.34;10335240;28;20054;-73
2022/08/28 00:37:16;;;;;;;11.75;3.03;;;;;;;-147.53;100.00;57128.34;10320520;28;20045;-73
2022/08/28 00:42:19;;;;;;;12.93;2.80;;;;;;;-147.53;100.00;57128.34;10317509;28;20077;-73
2022/08/28 00:47:25;;;;;;;11.25;2.80;;;;;;;-147.53;100.00;57128.34;10314188;28;20069;-73
2022/08/28 00:52:27;;;;;;;14.85;2.92;;;;;;;-147.53;100.00;57128.34;10312859;28;20846;-73
2022/08/28 00:57:39;;;;;;;17.95;3.78;;;;;;;-147.53;100.00;57128.34;10321107;28;20068;-75
2022/08/28 01:02:41;;;;;;;12.00;3.03;;;;;;;-147.53;100.00;57128.34;10317671;28;20129;-75
2022/08/28 01:07:44;;;;;;;12.02;3.70;;;;;;;-147.53;100.00;57128.34;10307528;28;20502;-76
2022/08/28 01:12:48;;;;;;;14.63;2.67;;;;;;;-147.53;100.00;57128.34;10310698;28;20038;-75
2022/08/28 01:17:55;;;;;;;11.90;2.58;;;;;;;-147.53;100.00;57128.34;10310750;28;20046;-76
2022/08/28 01:23:09;;;;;;;12.38;3.05;;;;;;;-147.53;100.00;57128.34;10315173;28;20506;-75
2022/08/28 01:28:13;;;;;;;12.40;2.53;;;;;;;-147.53;100.00;57128.34;10318783;28;20403;-75
2022/08/28 01:33:15;;;;;;;9.68;2.90;;;;;;;-147.53;100.00;57128.34;10312898;28;20046;-76
2022/08/28 01:38:17;;;;;;;13.07;3.08;;;;;;;-147.53;100.00;57128.34;10318038;28;20509;-76
2022/08/28 01:43:27;;;;;;;15.73;2.70;;;;;;;-147.53;100.00;57128.34;10313607;28;20054;-75
2022/08/28 01:48:31;;;;;;;9.68;2.55;;;;;;;-147.53;100.00;57128.34;10318112;28;20050;-76
2022/08/28 01:53:33;;;;;;;9.75;2.78;;;;;;;-147.53;100.00;57128.34;10317680;28;20042;-75
2022/08/28 01:58:35;;;;;;;13.18;3.03;;;;;;;-147.53;100.00;57128.34;10314957;28;20050;-76
2022/08/28 02:03:39;;;;;;;15.75;2.53;;;;;;;-147.53;100.00;57128.34;10324740;28;20043;-75
2022/08/28 02:08:41;;;;;;;9.40;2.40;;;;;;;-147.53;100.00;57128.34;10316875;28;20042;-76
2022/08/28 02:13:43;;;;;;;12.50;2.65;;;;;;;-147.53;100.00;57128.34;10308226;28;20052;-76
2022/08/28 02:18:45;;;;;;;9.23;2.75;;;;;;;-147.53;100.00;57128.34;10307872;28;20050;-75
2022/08/28 02:23:47;;;;;;;18.17;2.40;;;;;;;-147.53;100.00;57128.34;10310553;28;20049;-75
2022/08/28 02:28:48;;;;;;;12.05;2.40;;;;;;;-147.53;100.00;57128.34;10314411;28;20056;-76
2022/08/28 02:33:50;;;;;;;10.80;2.47;;;;;;;-147.53;100.00;57128.34;10312389;28;20042;-75
2022/08/28 02:38:52;;;;;;;15.20;2.45;;;;;;;-147.53;100.00;57128.34;10317108;28;20141;-76
2022/08/28 02:43:58;;;;;;;14.18;3.72;;;;;;;-147.53;100.00;57128.34;10316297;28;20109;-76
2022/08/28 02:48:59;;;;;;;11.75;2.80;;;;;;;-147.53;100.00;57128.34;10316711;28;20050;-76
2022/08/28 02:54:01;;;;;;;9.98;2.65;;;;;;;-147.53;100.00;57128.34;10316251;28;20042;-76
2022/08/28 02:59:03;;;;;;;8.63;2.58;;;;;;;-147.53;100.00;57128.34;10307081;28;20092;-76
2022/08/28 03:04:05;;;;;;;9.98;2.35;;;;;;;-147.53;100.00;57128.34;10316103;28;20050;-75
2022/08/28 03:09:08;;;;;;;10.15;2.20;;;;;;;-147.53;100.00;57128.34;10316193;28;20053;-76
2022/08/28 03:14:09;;;;;;;11.32;2.75;;;;;;;-147.53;100.00;57128.34;10310437;28;20042;-74
2022/08/28 03:19:11;;;;;;;9.55;2.80;;;;;;;-147.53;100.00;57128.34;10314574;28;20048;-75
2022/08/28 03:24:12;;;;;;;11.50;3.33;;;;;;;-147.53;100.00;57128.34;10306330;28;20097;-75
2022/08/28 03:29:16;;;;;;;12.23;2.90;;;;;;;-147.53;100.00;57128.34;10316292;28;20061;-74
2022/08/28 03:34:17;;;;;;;9.73;2.20;;;;;;;-147.53;100.00;57128.34;10315864;28;20050;-75
2022/08/28 03:39:19;;;;;;;13.88;2.72;;;;;;;-147.53;100.00;57128.34;10306656;28;20133;-75
2022/08/28 03:44:21;;;;;;;12.23;3.13;;;;;;;-147.53;100.00;57128.34;10315244;28;20050;-75
2022/08/28 03:49:22;;;;;;;14.27;3.10;;;;;;;-147.53;100.00;57128.34;10315550;28;20050;-75
2022/08/28 03:54:24;;;;;;;11.35;2.97;;;;;;;-147.53;100.00;57128.34;10315107;28;20056;-75
2022/08/28 03:59:27;;;;;;;6.82;2.72;;;;;;;-147.53;100.00;57128.34;10310512;28;20050;-74
2022/08/28 04:04:34;;;;;;;11.70;3.38;;;;;;;-147.53;100.00;57128.34;10337414;28;20417;-74
2022/08/28 04:09:36;;;;;;;12.63;2.72;;;;;;;-147.53;100.00;57128.34;10321257;28;20066;-75
2022/08/28 04:14:37;;;;;;;8.63;2.80;;;;;;;-147.53;100.00;57128.34;10316630;28;20137;-74
2022/08/28 04:19:39;;;;;;;12.00;2.80;;;;;;;-147.53;100.00;57128.34;10322406;28;20430;-75
2022/08/28 04:24:40;;;;;;;16.40;3.17;;;;;;;-147.53;100.00;57128.34;10314117;28;20046;-75
2022/08/28 04:29:42;;;;;;;15.88;3.55;;;;;;;-147.53;100.00;57128.34;10319439;28;20577;-75
2022/08/28 04:34:44;;;;;;;16.48;3.28;;;;;;;-147.53;100.00;57128.34;10320978;28;20042;-75
2022/08/28 04:39:45;;;;;;;10.20;2.78;;;;;;;-147.53;100.00;57128.34;10316737;28;20125;-75
2022/08/28 04:44:47;;;;;;;8.55;2.30;;;;;;;-147.53;100.00;57128.34;10311893;28;20035;-75
2022/08/28 04:49:49;;;;;;;10.70;2.65;;;;;;;-147.53;100.00;57128.34;10321429;28;20046;-75
2022/08/28 04:54:51;;;;;;;9.93;2.97;;;;;;;-147.53;100.00;57128.34;10319542;28;20049;-75
2022/08/28 04:59:52;;;;;;;10.20;2.80;;;;;;;-147.53;100.00;57128.34;10319099;28;20051;-75
2022/08/28 05:04:54;;;;;;;10.23;2.40;;;;;;;-147.53;100.00;57128.34;10319751;28;20412;-75
2022/08/28 05:09:56;;;;;;;7.28;2.20;;;;;;;-147.53;100.00;57128.34;10318493;28;20049;-75
2022/08/28 05:14:58;;;;;;;7.93;2.05;;;;;;;-147.53;100.00;57128.34;10314330;28;20146;-75
2022/08/28 05:20:00;;;;;;;8.63;3.08;;;;;;;-147.53;100.00;57128.34;10310567;28;20407;-75
2022/08/28 05:25:02;;;;;;;8.70;2.35;;;;;;;-147.53;100.00;57128.34;10320135;28;20206;-75
2022/08/28 05:30:04;;;;;;;11.25;2.85;;;;;;;-147.53;100.00;57128.34;10313967;28;20050;-75
2022/08/28 05:35:06;;;;;;;14.95;2.65;;;;;;;-147.53;100.00;57128.34;10318303;28;20038;-75
2022/08/28 05:40:09;;;;;;;12.90;2.25;;;;;;;-147.53;100.00;57128.34;10313959;28;20234;-75
2022/08/28 05:45:10;;;;;;;7.82;3.00;;;;;;;-147.53;100.00;57128.34;10310293;28;20108;-75
2022/08/28 05:50:12;;;;;;;6.50;2.10;;;;;;;-147.53;100.00;57128.34;10310685;28;20449;-75
2022/08/28 05:55:14;;;;;;;14.48;2.80;;;;;;;-147.53;100.00;57128.34;10316349;28;20466;-75
2022/08/28 06:00:17;;;;;;;15.98;3.00;;;;;;;-147.53;100.00;57128.34;10315198;28;20039;-75
2022/08/28 06:05:18;;;;;;;12.32;3.00;;;;;;;-147.53;100.00;57128.34;10296959;28;20416;-75
2022/08/28 06:10:20;;;;;;;16.92;2.92;;;;;;;-147.53;100.00;57128.34;10290429;28;20050;-75
2022/08/28 06:15:24;;;;;;;9.38;2.25;;;;;;;-147.53;100.00;57128.34;10296587;28;20564;-75
2022/08/28 06:20:25;;;;;;;9.18;2.30;;;;;;;-147.53;100.00;57128.34;10299582;28;20050;-75
2022/08/28 06:25:27;;;;;;;11.93;2.78;;;;;;;-147.53;100.00;57128.34;10298153;28;20640;-75
2022/08/28 06:30:28;;;;;;;9.38;2.40;;;;;;;-147.53;100.00;57128.34;10296871;28;20046;-75
2022/08/28 06:35:31;;;;;;;8.07;2.20;;;;;;;-147.53;100.00;57128.34;10299893;28;20581;-75
2022/08/28 06:40:38;;;;;;;9.52;2.00;;;;;;;-147.53;100.00;57128.34;10303721;28;20046;-76
2022/08/28 06:45:44;;;;;;;11.98;2.58;;;;;;;-147.53;100.00;57128.34;10297801;28;20519;-75
2022/08/28 06:50:48;;;;;;;13.65;2.33;;;;;;;-147.53;100.00;57128.34;10295714;28;20053;-74
2022/08/28 06:56:07;;;;;;;16.27;2.40;;;;;;;-147.53;100.00;57128.34;10302947;28;20058;-75
2022/08/28 07:01:21;;;;;;;9.70;2.20;;;;;;;-147.53;100.00;57128.34;10293383;28;20146;-75
2022/08/28 07:06:23;;;;;;;11.40;2.10;;;;;;;-147.53;100.00;57128.34;10300054;28;20058;-75
2022/08/28 07:11:28;;;;;;;6.85;1.88;;;;;;;-147.53;100.00;57128.34;10304570;28;20038;-75
2022/08/28 07:16:33;;;;;;;7.80;1.92;;;;;;;-147.53;100.00;57128.34;10298089;28;20144;-76
2022/08/28 07:21:37;;;;;;;5.65;1.60;;;;;;;-147.53;100.00;57128.34;10300984;28;20428;-75
2022/08/28 07:26:40;;;;;;;8.80;2.22;;;;;;;-147.53;100.00;57128.34;10297525;28;20050;-75
2022/08/28 07:31:45;;;;;;;8.77;1.98;;;;;;;-147.53;100.00;57128.34;10284685;28;20034;-74
2022/08/28 07:36:50;;;;;;;9.00;2.08;;;;;;;-147.53;100.00;57128.34;10291646;28;20046;-74
2022/08/28 07:41:52;;;;;;;11.23;1.85;;;;;;;-147.53;100.00;57128.34;10301412;28;20038;-75
2022/08/28 07:46:59;;;;;;;6.00;1.80;;;;;;;-147.53;100.00;57128.34;10307036;28;20050;-75
2022/08/28 07:52:01;;;;;;;11.52;2.05;;;;;;;-147.53;100.00;57128.34;10301571;28;20482;-78
2022/08/28 07:57:10;;;;;;;12.05;1.98;;;;;;;-147.53;100.00;57128.34;10309171;28;20172;-77
2022/08/28 08:02:13;;;;;;;11.32;1.70;;;;;;;-147.53;100.00;57128.34;10293347;28;20039;-79
2022/08/28 08:07:16;;;;;;;10.70;1.80;;;;;;;-147.53;100.00;57128.34;10297835;28;20170;-79
2022/08/28 08:12:19;;;;;;;9.23;2.03;;;;;;;-147.53;100.00;57128.34;10302437;28;20038;-78
2022/08/28 08:17:20;;;;;;;;;;;;;;;-147.53;100.00;57128.34;10303105;28;20046;-79
2022/08/28 08:22:22;;;;;;;8.60;2.00;;;;;;;-147.53;100.00;57128.34;10314611;28;19961;-79
2022/08/28 08:27:24;;;;;;;10.35;2.38;;;;;;;-147.53;100.00;57128.34;10308283;28;20062;-78
2022/08/28 08:32:25;;;;;;;10.15;1.70;;;;;;;-147.53;100.00;57128.34;10298896;28;20038;-79
2022/08/28 08:37:27;;;;;;;11.18;2.45;;;;;;;-147.53;100.00;57128.34;10297790;28;23007;-79
2022/08/28 08:42:32;;;;;;;7.53;1.95;;;;;;;-147.53;100.00;57128.34;10294296;28;20409;-78
2022/08/28 08:47:47;;;;;;;8.35;1.67;;;;;;;-147.53;100.00;57128.34;10310224;28;20104;-78
2022/08/28 08:52:56;;;;;;;12.68;2.40;;;;;;;-147.53;100.00;57128.34;10299941;28;20041;-78
2022/08/28 08:58:05;;;;;;;;;;;;;;;-147.53;100.00;57128.34;10310960;28;20051;-82
2022/08/28 09:03:22;;;;;;;8.10;1.80;;;;;;;-147.53;100.00;57128.34;10305876;28;19981;-80
2022/08/28 09:08:44;;;;;;;11.10;1.80;;;;;;;-147.53;100.00;57128.34;10340311;28;20077;-77
2022/08/28 09:13:58;;;;;;;8.10;1.80;;;;;;;-147.53;100.00;57128.34;10322138;28;20053;-79
2022/08/28 09:19:00;;;;;;;9.30;2.55;;;;;;;-147.53;100.00;57128.34;10329285;28;20061;-79
2022/08/28 09:24:06;;;;;;;10.40;1.80;;;;;;;-147.53;100.00;57128.34;10315075;28;20125;-78
2022/08/28 09:29:17;;;;;;;10.15;1.80;;;;;;;-147.53;100.00;57128.34;10284110;28;20120;-79
2022/08/28 09:34:30;;;;;;;7.95;1.60;;;;;;;-147.53;100.00;57128.34;10294832;28;20070;-78
2022/08/28 09:39:39;;;;;;;;;;;;;;;-147.53;100.00;57128.34;10316358;28;20046;-79
2022/08/28 09:44:55;;;;;;;7.28;1.95;;;;;;;-147.53;100.00;57128.34;10303986;28;19995;-79
2022/08/28 09:50:14;;;;;;;6.30;1.92;;;;;;;-147.53;100.00;57128.34;10303381;28;20133;-79
2022/08/28 09:55:44;;;;;;;8.65;1.60;;;;;;;-147.53;100.00;57128.34;10295156;28;20042;-79
2022/08/28 10:00:57;;;;;;;7.80;2.20;;;;;;;-147.53;100.00;57128.34;10303497;28;20170;-78
2022/08/28 10:06:10;;;;;;;7.22;1.65;;;;;;;-147.53;100.00;57128.34;10298978;28;20184;-79
2022/08/28 10:11:22;;;;;;;5.15;1.67;;;;;;;-147.53;100.00;57128.34;10308350;28;20525;-79
2022/08/28 10:16:53;;;;;;;6.38;1.70;;;;;;;-147.53;100.00;57128.34;10295448;28;20050;-78
2022/08/28 10:22:18;;;;;;;6.55;1.50;;;;;;;-147.53;100.00;57128.34;10299379;28;20046;-79
2022/08/28 10:27:38;;;;;;;6.28;1.80;;;;;;;-147.53;100.00;57128.34;10303927;28;20046;-79
2022/08/28 10:33:03;;;;;;;5.97;1.60;;;;;;;-147.53;100.00;57128.34;10303608;28;20070;-79
2022/08/28 10:38:15;;;;;;;9.43;2.08;;;;;;;-147.53;100.00;57128.34;10295574;28;20047;-79
2022/08/28 10:43:38;;;;;;;7.85;1.98;;;;;;;-147.53;100.00;57128.34;10296621;28;20551;-78
2022/08/28 10:48:47;;;;;;;5.60;1.35;;;;;;;-147.53;100.00;57128.34;10295770;28;20057;-78
2022/08/28 10:53:56;;;;;;;8.27;1.70;;;;;;;-147.53;100.00;57128.34;10283690;28;20148;-77
2022/08/28 10:58:58;;;;;;;5.55;1.60;;;;;;;-147.53;100.00;57128.34;10295837;28;20054;-77
2022/08/28 11:04:06;;;;;;;5.68;1.50;;;;;;;-147.53;100.00;57128.34;10295212;28;20093;-77
2022/08/28 11:09:26;;;;;;;8.00;1.98;;;;;;;-147.53;100.00;57128.34;10305093;28;20105;-77
2022/08/28 11:14:30;;;;;;;4.97;1.55;;;;;;;-147.53;100.00;57128.34;10300670;28;20050;-80
2022/08/28 11:20:10;;;;;;;10.60;1.92;;;;;;;-147.53;100.00;57128.34;10317875;28;20775;-80
2022/08/28 11:25:23;;;;;;;8.77;2.50;;;;;;;-147.53;100.00;57128.34;10280830;28;20134;-79
2022/08/28 11:30:34;;;;;;;7.57;1.85;;;;;;;-147.53;100.00;57128.34;10306553;28;20679;-79
2022/08/28 11:35:40;;;;;;;5.43;1.75;;;;;;;-147.53;100.00;57128.34;10304899;28;20061;-78
2022/08/28 11:40:54;;;;;;;8.65;2.22;;;;;;;-147.53;100.00;57128.34;10300491;28;20126;-78
2022/08/28 11:45:59;;;;;;;12.60;2.50;;;;;;;-147.53;100.00;57128.34;10304937;28;20125;-78
2022/08/28 11:51:05;;;;;;;8.68;2.47;;;;;;;-147.53;100.00;57128.34;10311153;28;20575;-77
2022/08/28 11:56:32;;;;;;;9.88;2.50;;;;;;;-147.53;100.00;57128.34;10314260;28;20145;-77
2022/08/28 12:01:35;;;;;;;13.20;3.03;;;;;;;-147.53;100.00;57128.34;10299552;28;20047;-77
2022/08/28 12:06:43;;;;;;;8.93;2.00;;;;;;;-147.53;100.00;57128.34;10300447;28;20043;-77
2022/08/28 12:11:48;;;;;;;9.00;2.30;;;;;;;-147.53;100.00;57128.34;10304642;28;20042;-78
2022/08/28 12:17:03;;;;;;;8.80;2.17;;;;;;;-147.53;100.00;57128.34;10299293;28;20062;-78
2022/08/28 12:22:10;;;;;;;10.77;1.92;;;;;;;-147.53;100.00;57128.34;10305549;28;20596;-79
2022/08/28 12:27:13;;;;;;;11.02;2.63;;;;;;;-147.53;100.00;57128.34;10311711;28;20050;-79
2022/08/28 12:32:41;;;;;;;7.10;1.95;;;;;;;-147.53;100.00;57128.34;10306593;28;20042;-81
2022/08/28 12:37:52;;;;;;;8.75;2.05;;;;;;;-147.53;100.00;57128.34;10306372;28;20049;-80
2022/08/28 12:43:09;;;;;;;9.43;2.88;;;;;;;-147.53;100.00;57128.34;10299446;28;20134;-80
2022/08/28 12:48:32;;;;;;;8.52;2.78;;;;;;;-147.53;100.00;57128.34;10304871;28;20070;-79
2022/08/28 12:53:44;;;;;;;9.82;2.55;;;;;;;-147.53;100.00;57128.34;10300397;28;20070;-79
2022/08/28 12:58:47;;;;;;;12.10;2.60;;;;;;;-147.53;100.00;57128.34;10301604;28;20119;-80
2022/08/28 13:03:52;;;;;;;13.10;3.22;;;;;;;-147.53;100.00;57128.34;10301935;28;20045;-80
2022/08/28 13:08:59;;;;;;;14.55;2.55;;;;;;;-147.53;100.00;57128.34;10295238;28;20157;-80
2022/08/28 13:14:03;;;;;;;18.23;2.45;;;;;;;-147.53;100.00;57128.34;10302442;28;20092;-80
2022/08/28 13:19:05;;;;;;;6.93;2.28;;;;;;;-147.53;100.00;57128.34;10304277;28;20506;-80
2022/08/28 13:24:27;;;;;;;10.18;2.70;;;;;;;-147.53;100.00;57128.34;10300812;28;20031;-80
2022/08/28 13:29:29;;;;;;;11.80;2.60;;;;;;;-147.53;100.00;57128.34;10303983;28;20050;-80
2022/08/28 13:34:36;;;;;;;13.85;2.63;;;;;;;-147.53;100.00;57128.34;10315801;28;20042;-77
2022/08/28 13:39:38;;;;;;;8.05;2.55;;;;;;;-147.53;100.00;57128.34;10300417;28;20046;-76
2022/08/28 13:44:47;;;;;;;12.80;3.10;;;;;;;-147.53;100.00;57128.34;10302601;28;20126;-77
2022/08/28 13:49:48;;;;;;;12.05;3.00;;;;;;;-147.53;100.00;57128.34;10300301;28;20421;-77
2022/08/28 13:54:50;;;;;;;13.25;3.38;;;;;;;-147.53;100.00;57128.34;10292695;28;20039;-77
2022/08/28 13:59:53;;;;;;;9.90;3.10;;;;;;;-147.53;100.00;57128.34;10318048;28;20506;-77
2022/08/28 14:04:56;;;;;;;8.07;2.58;;;;;;;-147.53;100.00;57128.34;10295440;28;20406;-77
2022/08/28 14:09:59;;;;;;;9.93;2.90;;;;;;;-147.53;100.00;57128.34;10303912;28;20060;-76
2022/08/28 14:15:01;;;;;;;11.00;3.85;;;;;;;-147.53;100.00;57128.34;10306964;28;20046;-76
2022/08/28 14:20:04;;;;;;;10.00;3.13;;;;;;;-147.53;100.00;57128.34;10302160;28;20050;-76
2022/08/28 14:25:06;;;;;;;10.48;4.60;;;;;;;-147.53;100.00;57128.34;10295063;28;20441;-77
2022/08/28 14:30:08;;;;;;;11.07;3.92;;;;;;;-147.53;100.00;57128.34;10300088;28;20042;-77
2022/08/28 14:35:12;;;;;;;10.35;3.88;;;;;;;-147.53;100.00;57128.34;10298573;28;20047;-76
2022/08/28 14:40:13;;;;;;;10.82;4.18;;;;;;;-147.53;100.00;57128.34;10303657;28;20046;-77
2022/08/28 14:45:15;;;;;;;17.05;5.50;;;;;;;-147.53;100.00;57128.34;10297606;28;20542;-76
2022/08/28 14:50:17;;;;;;;12.38;4.60;;;;;;;-147.53;100.00;57128.34;10302300;28;20046;-76
2022/08/28 14:55:18;;;;;;;11.32;3.65;;;;;;;-147.53;100.00;57128.34;10303920;28;20038;-76
2022/08/28 15:00:20;;;;;;;12.18;3.58;;;;;;;-147.53;100.00;57128.34;10313525;28;20076;-77
2022/08/28 15:05:22;;;;;;;12.85;3.58;;;;;;;-147.53;100.00;57128.34;10297868;28;20038;-75
2022/08/28 15:10:23;;;;;;;8.13;3.22;;;;;;;-147.53;100.00;57128.34;10293286;28;20046;-77
2022/08/28 15:15:25;;;;;;;9.07;2.85;;;;;;;-147.53;100.00;57128.34;10297707;28;20034;-77
2022/08/28 15:20:26;;;;;;;11.13;3.38;;;;;;;-147.53;100.00;57128.34;10303134;28;20410;-81
2022/08/28 15:25:28;;;;;;;9.50;3.47;;;;;;;-147.53;100.00;57128.34;10301512;28;20050;-80
2022/08/28 15:30:30;;;;;;;10.38;2.92;;;;;;;-147.53;100.00;57128.34;10323763;28;20038;-82
2022/08/28 15:35:33;;;;;;;11.10;3.10;;;;;;;-147.53;100.00;57128.34;10302656;28;20038;-81
2022/08/28 15:45:55;;;;;;;12.23;3.03;;;;;;;-147.53;100.00;57128.34;10300874;28;20413;-80
2022/08/28 15:50:56;;;;;;;13.98;2.90;;;;;;;-147.53;100.00;57128.34;10317875;28;20054;-80
2022/08/28 15:56:03;;;;;;;8.52;2.72;;;;;;;-147.53;100.00;57128.34;10305535;28;20042;-80
2022/08/28 16:01:06;;;;;;;11.60;2.50;;;;;;;-147.53;100.00;57128.34;10305215;28;20724;-80
2022/08/28 16:06:14;;;;;;;7.65;2.40;;;;;;;-147.53;100.00;57128.34;10282532;28;20047;-81
2022/08/28 16:11:18;;;;;;;12.45;3.08;;;;;;;-147.53;100.00;57128.34;10303013;28;20494;-80
2022/08/28 16:16:20;;;;;;;9.07;2.78;;;;;;;-147.53;100.00;57128.34;10304411;28;20262;-80
2022/08/28 16:21:21;;;;;;;7.93;2.50;;;;;;;-147.53;100.00;57128.34;10320425;28;20112;-80
2022/08/28 16:26:28;;;;;;;9.25;2.55;;;;;;;-147.53;100.00;57128.34;10303688;28;20050;-78
2022/08/28 16:31:30;;;;;;;10.70;2.03;;;;;;;-147.53;100.00;57128.34;10300792;28;20038;-78
2022/08/28 16:36:32;;;;;;;9.07;2.10;;;;;;;-147.53;100.00;57128.34;10311705;28;20043;-78
2022/08/28 16:41:34;;;;;;;9.25;2.05;;;;;;;-147.53;100.00;57128.34;10296103;28;20039;-78
2022/08/28 16:46:36;;;;;;;9.40;2.70;;;;;;;-147.53;100.00;57128.34;10295064;28;20429;-78
2022/08/28 16:51:37;;;;;;;12.82;2.63;;;;;;;-147.53;100.00;57128.34;10301632;28;20053;-78
2022/08/28 16:56:39;;;;;;;160.48;85.78;;;;;;;-147.53;100.00;57128.34;10302043;28;20121;-78
2022/08/28 17:01:40;;;;;;;8.55;2.83;;;;;;;-147.53;100.00;57128.34;10297251;28;20042;-79
2022/08/28 17:06:44;;;;;;;25.15;12.43;;;;;;;-147.53;100.00;57128.34;10290708;28;20144;-76
2022/08/28 17:11:46;;;;;;;13.93;2.55;;;;;;;-147.53;100.00;57128.34;10300828;28;20082;-75
2022/08/28 17:16:52;;;;;;;7.65;2.65;;;;;;;-147.53;100.00;57128.34;10300384;28;20113;-75
2022/08/28 17:27:15;;;;;;;11.63;2.92;;;;;;;-147.53;100.00;57128.34;10302447;28;20050;-76
2022/08/28 17:32:23;;;;;;;12.63;5.17;;;;;;;-147.53;100.00;57128.34;10293762;28;20192;-77
2022/08/28 17:37:25;;;;;;;9.10;2.22;;;;;;;-147.53;100.00;57128.34;10315420;28;20141;-76
2022/08/28 17:42:26;;;;;;;9.25;2.28;;;;;;;-147.53;100.00;57128.34;10293246;28;20458;-77
2022/08/28 17:47:30;;;;;;;10.63;2.58;;;;;;;-147.53;100.00;57128.34;10304977;28;20311;-76
2022/08/28 17:52:32;;;;;;;8.15;2.40;;;;;;;-147.53;100.00;57128.34;10303479;28;20057;-77
2022/08/28 17:57:34;;;;;;;9.55;2.38;;;;;;;-147.53;100.00;57128.34;10314073;28;20069;-77
2022/08/28 18:02:38;;;;;;;7.18;2.20;;;;;;;-147.53;100.00;57128.34;10314401;28;20046;-76
2022/08/28 18:07:40;;;;;;;10.65;2.30;;;;;;;-147.53;100.00;57128.34;10302075;28;20042;-77
2022/08/28 18:12:42;;;;;;;7.50;2.15;;;;;;;-147.53;100.00;57128.34;10314386;28;20116;-77
2022/08/28 18:17:49;;;;;;;8.38;2.10;;;;;;;-147.53;100.00;57128.34;10296668;28;20053;-77
2022/08/28 18:22:50;;;;;;;12.20;2.17;;;;;;;-147.53;100.00;57128.34;10299245;28;20892;-76
2022/08/28 18:27:52;;;;;;;8.05;2.30;;;;;;;-147.53;100.00;57128.34;10302188;28;20061;-77
2022/08/28 18:32:54;;;;;;;11.57;2.50;;;;;;;-147.53;100.00;57128.34;10297156;28;20042;-77
2022/08/28 18:37:59;;;;;;;9.45;2.30;;;;;;;-147.53;100.00;57128.34;10303148;28;20130;-77
2022/08/28 18:43:01;;;;;;;11.55;2.50;;;;;;;-147.53;100.00;57128.34;10300191;28;20048;-77
2022/08/28 18:48:04;;;;;;;12.20;2.80;;;;;;;-147.53;100.00;57128.34;10300000;28;20126;-77
2022/08/28 18:53:05;;;;;;;7.78;2.47;;;;;;;-147.53;100.00;57128.34;10322590;28;20038;-77
2022/08/28 18:58:07;;;;;;;9.03;2.47;;;;;;;-147.53;100.00;57128.34;10300091;28;20038;-76
2022/08/28 19:03:12;;;;;;;8.30;2.45;;;;;;;-147.53;100.00;57128.34;10297282;28;20420;-77
2022/08/28 19:08:14;;;;;;;9.95;2.15;;;;;;;-147.53;100.00;57128.34;10312915;28;20061;-77
2022/08/28 19:13:16;;;;;;;11.00;2.53;;;;;;;-147.53;100.00;57128.34;10292753;28;20578;-77
2022/08/28 19:18:19;;;;;;;8.75;2.30;;;;;;;-147.53;100.00;57128.34;10299205;28;20412;-76
2022/08/28 19:23:21;;;;;;;6.85;2.63;;;;;;;-147.53;100.00;57128.34;10303385;28;20039;-77
2022/08/28 19:28:23;;;;;;;8.93;2.42;;;;;;;-147.53;100.00;57128.34;10300822;28;20043;-77
2022/08/28 19:33:25;;;;;;;9.35;2.42;;;;;;;-147.53;100.00;57128.34;10308957;28;20053;-77
2022/08/28 19:38:28;;;;;;;8.15;1.98;;;;;;;-147.53;100.00;57128.34;10296763;28;20323;-76
2022/08/28 19:43:31;;;;;;;12.27;2.45;;;;;;;-147.53;100.00;57128.34;10304088;28;20438;-77
2022/08/28 19:48:44;;;;;;;15.98;3.33;;;;;;;-147.53;100.00;57128.34;10294709;28;20498;-77
2022/08/28 19:53:46;;;;;;;8.20;2.25;;;;;;;-147.53;100.00;57128.34;10302919;28;20566;-76
2022/08/28 19:58:48;;;;;;;11.50;2.30;;;;;;;-147.53;100.00;57128.34;10309294;28;20223;-77
2022/08/28 20:03:51;;;;;;;6.80;2.10;;;;;;;-147.53;100.00;57128.34;10305520;28;20125;-77
2022/08/28 20:08:52;;;;;;;8.13;2.15;;;;;;;-147.53;100.00;57128.34;10299488;28;20470;-77
2022/08/28 20:13:57;;;;;;;10.57;2.45;;;;;;;-147.53;100.00;57128.34;10307198;28;20053;-77
2022/08/28 20:19:00;;;;;;;8.35;2.17;;;;;;;-147.53;100.00;57128.34;10300704;28;20501;-77
2022/08/28 20:24:02;;;;;;;9.60;2.03;;;;;;;-147.53;100.00;57128.34;10295897;28;20084;-77
2022/08/28 20:29:06;;;;;;;6.07;1.95;;;;;;;-147.53;100.00;57128.34;10305951;28;20169;-77
2022/08/28 20:34:10;;;;;;;11.80;2.47;;;;;;;-147.53;100.00;57128.34;10305776;28;20100;-77
2022/08/28 20:39:13;;;;;;;5.68;2.10;;;;;;;-147.53;100.00;57128.34;10307549;28;20035;-77
2022/08/28 20:44:17;;;;;;;14.82;3.92;;;;;;;-147.53;100.00;57128.34;10310399;28;20042;-77
2022/08/28 20:49:20;;;;;;;10.13;2.47;;;;;;;-147.53;100.00;57128.34;10308544;28;20043;-77
2022/08/28 20:54:36;;;;;;;8.65;2.30;;;;;;;-147.53;100.00;57128.34;10303902;28;20049;-77
2022/08/28 20:59:40;;;;;;;8.45;2.00;;;;;;;-147.53;100.00;57128.34;10303076;28;20039;-77
2022/08/28 21:04:44;;;;;;;8.35;2.55;;;;;;;-147.53;100.00;57128.34;10313959;28;20042;-77
2022/08/28 21:09:46;;;;;;;11.02;2.25;;;;;;;-147.53;100.00;57128.34;10303415;28;20034;-77
2022/08/28 21:15:11;;;;;;;10.90;2.33;;;;;;;-147.53;100.00;57128.34;10310448;28;20042;-77
2022/08/28 21:20:14;;;;;;;10.85;2.25;;;;;;;-147.53;100.00;57128.34;10298019;28;20042;-77
2022/08/28 21:25:17;;;;;;;14.85;2.97;;;;;;;-147.53;100.00;57128.34;10319790;28;20051;-77
2022/08/28 21:30:20;;;;;;;9.65;2.35;;;;;;;-147.53;100.00;57128.34;10300921;28;20038;-77
2022/08/28 21:35:22;;;;;;;10.63;2.28;;;;;;;-147.53;100.00;57128.34;10305008;28;20062;-78
2022/08/28 21:40:23;;;;;;;6.70;2.17;;;;;;;-147.53;100.00;57128.34;10307101;28;20239;-77
2022/08/28 21:45:25;;;;;;;8.30;2.05;;;;;;;-147.53;100.00;57128.34;10297913;28;20042;-80
2022/08/28 21:50:30;;;;;;;14.50;2.50;;;;;;;-147.53;100.00;57128.34;10311142;28;20050;-77
2022/08/28 21:55:31;;;;;;;9.80;2.25;;;;;;;-147.53;100.00;57128.34;10302905;28;20907;-78
2022/08/28 22:00:33;;;;;;;9.85;2.80;;;;;;;-147.53;100.00;57128.34;10297201;28;20046;-77
2022/08/28 22:05:34;;;;;;;7.20;1.90;;;;;;;-147.53;100.00;57128.34;10293983;28;20043;-77
2022/08/28 22:10:39;;;;;;;8.75;2.03;;;;;;;-147.53;100.00;57128.34;10296964;28;20042;-77
2022/08/28 22:15:43;;;;;;;11.73;2.63;;;;;;;-147.53;100.00;57128.34;10301089;28;20054;-77
2022/08/28 22:26:10;;;;;;;9.13;2.72;;;;;;;-147.53;100.00;57128.34;10301522;28;20039;-77
2022/08/28 22:31:12;;;;;;;10.52;2.53;;;;;;;-147.53;100.00;57128.34;10299176;28;20042;-77
2022/08/28 22:36:15;;;;;;;8.13;2.53;;;;;;;-147.53;100.00;57128.34;10317636;28;20042;-77
2022/08/28 22:41:18;;;;;;;10.15;2.67;;;;;;;-147.53;100.00;57128.34;10317363;28;20034;-77
2022/08/28 22:46:19;;;;;;;9.38;2.17;;;;;;;-147.53;100.00;57128.34;10297954;28;20122;-77
2022/08/28 22:51:21;;;;;;;10.18;2.35;;;;;;;-147.53;100.00;57128.34;10301418;28;20110;-77
2022/08/28 22:56:23;;;;;;;10.52;2.30;;;;;;;-147.53;100.00;57128.34;10306629;28;20454;-77
2022/08/28 23:01:25;;;;;;;7.50;2.53;;;;;;;-147.53;100.00;57128.34;10313705;28;20042;-77
2022/08/28 23:06:30;;;;;;;9.57;1.90;;;;;;;-147.53;100.00;57128.34;10302335;28;20068;-77